Private Wetterstation Sandau
Wetterdaten: Montag, 24.12.2012
Datum Zeit Temp. A. Feuchte A. Luftdruck Regen Wind Richtung Richtung Taupunkt Windchill
24.12.2012 00:01 3,3 C 95 % 1006,6 hPa 0,0 l/m 4,3 km/h (1 Bft) S-SO 157 2,6 C 3,3 C
24.12.2012 00:06 3,8 C 95 % 1006,6 hPa 0,5 l/m 6,8 km/h (2 Bft) W-SW 247 3,1 C 2,1 C
24.12.2012 00:11 3,9 C 95 % 1006,7 hPa 0,0 l/m 5,8 km/h (2 Bft) W-SW 247 3,2 C 2,5 C
24.12.2012 00:16 4,2 C 95 % 1006,7 hPa 0,0 l/m 8,3 km/h (2 Bft) SW 225 3,5 C 2,1 C
24.12.2012 00:21 4,3 C 95 % 1006,8 hPa 0,0 l/m 2,9 km/h (1 Bft) W-SW 247 3,6 C 4,3 C
24.12.2012 00:26 4,3 C 95 % 1006,4 hPa 0,5 l/m 12,6 km/h (3 Bft) W-SW 247 3,6 C 1,3 C
24.12.2012 00:31 4,4 C 95 % 1006,5 hPa 0,0 l/m 12,2 km/h (2 Bft) W-SW 247 3,7 C 1,5 C
24.12.2012 00:36 4,4 C 95 % 1006,8 hPa 0,0 l/m 7,2 km/h (2 Bft) SW 225 3,7 C 2,7 C
24.12.2012 00:41 4,4 C 95 % 1006,7 hPa 0,0 l/m 9,7 km/h (2 Bft) W-SW 247 3,7 C 2,0 C
24.12.2012 00:46 4,4 C 95 % 1006,5 hPa 1,0 l/m 7,6 km/h (2 Bft) W-SW 247 3,7 C 2,5 C
24.12.2012 00:51 4,3 C 95 % 1006,7 hPa 0,0 l/m 11,2 km/h (2 Bft) W-SW 247 3,6 C 1,6 C
24.12.2012 00:56 4,4 C 95 % 1006,3 hPa 0,0 l/m 4,0 km/h (1 Bft) SW 225 3,7 C 4,4 C
24.12.2012 01:01 4,3 C 95 % 1006,3 hPa 0,0 l/m 2,5 km/h (1 Bft) S-SW 202 3,6 C 4,3 C
24.12.2012 01:06 4,3 C 95 % 1006,3 hPa 0,0 l/m 3,2 km/h (1 Bft) S-SW 202 3,6 C 4,3 C
24.12.2012 01:11 4,1 C 95 % 1006,2 hPa 0,5 l/m 4,7 km/h (1 Bft) S-SW 202 3,4 C 3,2 C
24.12.2012 01:16 3,9 C 95 % 1006,4 hPa 0,0 l/m 2,2 km/h (1 Bft) S-SW 202 3,2 C 3,9 C
24.12.2012 01:21 3,8 C 95 % 1006,5 hPa 0,0 l/m 1,4 km/h (1 Bft) W-SW 247 3,1 C 3,8 C
24.12.2012 01:26 3,8 C 95 % 1006,7 hPa 0,0 l/m 4,0 km/h (1 Bft) W-SW 247 3,1 C 3,8 C
24.12.2012 01:31 3,9 C 95 % 1006,7 hPa 0,0 l/m 2,2 km/h (1 Bft) W-SW 247 3,2 C 3,9 C
24.12.2012 01:36 3,9 C 95 % 1006,6 hPa 1,0 l/m 3,2 km/h (1 Bft) W-SW 247 3,2 C 3,9 C
24.12.2012 01:41 3,8 C 95 % 1006,9 hPa 0,0 l/m 3,2 km/h (1 Bft) W-SW 247 3,1 C 3,8 C
24.12.2012 01:46 3,8 C 95 % 1007,0 hPa 0,0 l/m 5,0 km/h (1 Bft) W-SW 247 3,1 C 2,7 C
24.12.2012 01:51 3,8 C 95 % 1007,0 hPa 0,0 l/m 4,0 km/h (1 Bft) SW 225 3,1 C 3,8 C
24.12.2012 01:56 3,8 C 95 % 1007,1 hPa 0,0 l/m 5,0 km/h (1 Bft) W-SW 247 3,1 C 2,7 C
24.12.2012 02:01 3,9 C 95 % 1007,0 hPa 0,0 l/m 4,3 km/h (1 Bft) W-SW 247 3,2 C 3,9 C
24.12.2012 02:06 4,1 C 95 % 1007,2 hPa 0,0 l/m 10,4 km/h (2 Bft) W-SW 247 3,4 C 1,5 C
24.12.2012 02:11 4,1 C 95 % 1007,4 hPa 0,5 l/m 4,3 km/h (1 Bft) W-SW 247 3,4 C 4,1 C
24.12.2012 02:16 4,3 C 95 % 1007,1 hPa 0,0 l/m 2,9 km/h (1 Bft) SW 225 3,6 C 4,3 C
24.12.2012 02:21 4,3 C 95 % 1007,1 hPa 0,0 l/m 5,8 km/h (2 Bft) W-SW 247 3,6 C 3,0 C
24.12.2012 02:26 4,1 C 95 % 1007,3 hPa 0,0 l/m 7,2 km/h (2 Bft) W-SW 247 3,4 C 2,3 C
24.12.2012 02:31 3,9 C 95 % 1007,3 hPa 0,0 l/m 4,0 km/h (1 Bft) W-SW 247 3,2 C 3,9 C
24.12.2012 02:36 3,9 C 95 % 1007,3 hPa 0,0 l/m 7,2 km/h (2 Bft) W-SW 247 3,2 C 2,1 C
24.12.2012 02:41 3,9 C 95 % 1007,4 hPa 0,0 l/m 4,3 km/h (1 Bft) W 270 3,2 C 3,9 C
24.12.2012 02:46 4,1 C 95 % 1007,4 hPa 0,0 l/m 6,1 km/h (2 Bft) W-SW 247 3,4 C 2,7 C
24.12.2012 02:51 4,1 C 95 % 1007,5 hPa 0,0 l/m 0,0 km/h (0 Bft) SW 225 3,4 C 4,1 C
24.12.2012 02:56 4,2 C 95 % 1007,5 hPa 0,0 l/m 4,0 km/h (1 Bft) W-SW 247 3,5 C 4,2 C
24.12.2012 03:01 4,1 C 95 % 1007,3 hPa 0,0 l/m 6,8 km/h (2 Bft) W-SW 247 3,4 C 2,4 C
24.12.2012 03:06 4,1 C 95 % 1007,2 hPa 0,0 l/m 8,3 km/h (2 Bft) W-SW 247 3,4 C 2,0 C
24.12.2012 03:11 4,2 C 95 % 1007,2 hPa 0,0 l/m 4,0 km/h (1 Bft) SW 225 3,5 C 4,2 C
24.12.2012 03:16 4,3 C 95 % 1007,3 hPa 0,0 l/m 5,8 km/h (2 Bft) W-SW 247 3,6 C 3,0 C
24.12.2012 03:21 4,4 C 95 % 1007,1 hPa 0,5 l/m 7,2 km/h (2 Bft) W-SW 247 3,7 C 2,7 C
24.12.2012 03:26 4,4 C 95 % 1007,3 hPa 0,0 l/m 5,8 km/h (2 Bft) W 270 3,7 C 3,1 C
24.12.2012 03:31 4,6 C 95 % 1007,3 hPa 0,0 l/m 7,9 km/h (2 Bft) W-SW 247 3,9 C 2,7 C
24.12.2012 03:36 4,7 C 95 % 1007,4 hPa 0,0 l/m 9,7 km/h (2 Bft) W-SW 247 4,0 C 2,4 C
24.12.2012 03:41 4,8 C 95 % 1007,4 hPa 0,0 l/m 8,6 km/h (2 Bft) S-SW 202 4,1 C 2,7 C
24.12.2012 03:46 4,9 C 95 % 1007,6 hPa 0,0 l/m 5,0 km/h (1 Bft) W-NW 292 4,2 C 4,0 C
24.12.2012 03:51 4,9 C 95 % 1007,4 hPa 0,0 l/m 6,5 km/h (2 Bft) W-SW 247 4,2 C 3,4 C
24.12.2012 03:56 4,8 C 95 % 1007,5 hPa 0,0 l/m 6,8 km/h (2 Bft) W-SW 247 4,1 C 3,2 C
24.12.2012 04:01 4,9 C 95 % 1007,4 hPa 0,0 l/m 5,4 km/h (1 Bft) W-SW 247 4,2 C 3,8 C
24.12.2012 04:06 4,9 C 95 % 1007,4 hPa 0,0 l/m 9,0 km/h (2 Bft) W-SW 247 4,2 C 2,8 C
24.12.2012 04:11 4,9 C 95 % 1007,4 hPa 0,0 l/m 7,2 km/h (2 Bft) W-SW 247 4,2 C 3,2 C
24.12.2012 04:16 4,9 C 95 % 1007,5 hPa 0,0 l/m 14,4 km/h (3 Bft) W-SW 247 4,2 C 1,7 C
24.12.2012 04:21 4,9 C 95 % 1007,5 hPa 0,0 l/m 16,2 km/h (3 Bft) S 180 4,2 C 1,4 C
24.12.2012 04:26 4,9 C 95 % 1007,5 hPa 0,0 l/m 14,4 km/h (3 Bft) W 270 4,2 C 1,7 C
24.12.2012 04:31 4,9 C 95 % 1007,5 hPa 0,0 l/m 7,6 km/h (2 Bft) W-SW 247 4,2 C 3,1 C
24.12.2012 04:36 4,9 C 95 % 1007,6 hPa 0,0 l/m 4,3 km/h (1 Bft) W-SW 247 4,2 C 4,9 C
24.12.2012 04:41 4,9 C 95 % 1007,4 hPa 0,0 l/m 9,4 km/h (2 Bft) S-SW 202 4,2 C 2,7 C
24.12.2012 04:46 4,9 C 95 % 1007,4 hPa 0,0 l/m 6,1 km/h (2 Bft) W 270 4,2 C 3,6 C
24.12.2012 04:51 4,9 C 95 % 1007,4 hPa 0,0 l/m 5,4 km/h (1 Bft) SW 225 4,2 C 3,8 C
24.12.2012 04:56 4,9 C 95 % 1007,4 hPa 0,0 l/m 4,7 km/h (1 Bft) W-SW 247 4,2 C 4,1 C
24.12.2012 05:01 4,9 C 95 % 1007,5 hPa 0,0 l/m 13,7 km/h (3 Bft) W 270 4,2 C 1,8 C
24.12.2012 05:06 4,9 C 95 % 1007,6 hPa 0,0 l/m 6,5 km/h (2 Bft) W-SW 247 4,2 C 3,4 C
24.12.2012 05:11 4,8 C 95 % 1007,5 hPa 0,0 l/m 4,7 km/h (1 Bft) W-SW 247 4,1 C 4,0 C
24.12.2012 05:16 4,8 C 95 % 1007,5 hPa 0,0 l/m 14,4 km/h (3 Bft) W-SW 247 4,1 C 1,6 C
24.12.2012 05:21 4,8 C 96 % 1007,5 hPa 0,0 l/m 5,0 km/h (1 Bft) W 270 4,2 C 3,9 C
24.12.2012 05:26 4,8 C 96 % 1007,6 hPa 0,0 l/m 7,9 km/h (2 Bft) SW 225 4,2 C 2,9 C
24.12.2012 05:31 4,8 C 96 % 1007,6 hPa 0,0 l/m 8,3 km/h (2 Bft) SW 225 4,2 C 2,8 C
24.12.2012 05:36 4,7 C 96 % 1007,7 hPa 0,0 l/m 7,2 km/h (2 Bft) W-SW 247 4,1 C 3,0 C
24.12.2012 05:41 4,7 C 96 % 1007,7 hPa 0,0 l/m 7,6 km/h (2 Bft) W-SW 247 4,1 C 2,9 C
24.12.2012 05:46 4,7 C 96 % 1007,7 hPa 0,0 l/m 4,0 km/h (1 Bft) SW 225 4,1 C 4,7 C
24.12.2012 05:51 4,7 C 96 % 1007,7 hPa 0,0 l/m 13,3 km/h (3 Bft) SW 225 4,1 C 1,7 C
24.12.2012 05:56 4,6 C 96 % 1007,6 hPa 0,0 l/m 3,6 km/h (1 Bft) W-SW 247 4,0 C 4,6 C
24.12.2012 06:01 4,5 C 96 % 1007,7 hPa 0,0 l/m 5,8 km/h (2 Bft) W-SW 247 3,9 C 3,2 C
24.12.2012 06:06 4,4 C 96 % 1007,6 hPa 0,0 l/m 8,3 km/h (2 Bft) W-SW 247 3,8 C 2,4 C
24.12.2012 06:11 4,4 C 96 % 1007,4 hPa 0,0 l/m 7,9 km/h (2 Bft) W-SW 247 3,8 C 2,5 C
24.12.2012 06:16 4,3 C 96 % 1007,5 hPa 0,0 l/m 3,2 km/h (1 Bft) S-SW 202 3,7 C 4,3 C
24.12.2012 06:21 4,2 C 95 % 1007,3 hPa 0,0 l/m 8,3 km/h (2 Bft) SW 225 3,5 C 2,1 C
24.12.2012 06:26 4,2 C 95 % 1007,8 hPa 0,0 l/m 6,1 km/h (2 Bft) SW 225 3,5 C 2,8 C
24.12.2012 06:31 4,2 C 95 % 1007,6 hPa 0,0 l/m 9,0 km/h (2 Bft) S-SW 202 3,5 C 1,9 C
24.12.2012 06:36 4,2 C 95 % 1008,0 hPa 0,0 l/m 6,8 km/h (2 Bft) W-SW 247 3,5 C 2,5 C
24.12.2012 06:41 4,2 C 95 % 1007,8 hPa 0,0 l/m 6,1 km/h (2 Bft) W-SW 247 3,5 C 2,8 C
24.12.2012 06:46 4,1 C 95 % 1007,8 hPa 0,0 l/m 7,9 km/h (2 Bft) W-SW 247 3,4 C 2,1 C
24.12.2012 06:51 4,1 C 95 % 1007,8 hPa 0,0 l/m 11,2 km/h (2 Bft) W-SW 247 3,4 C 1,3 C
24.12.2012 06:56 4,1 C 95 % 1008,0 hPa 0,0 l/m 6,5 km/h (2 Bft) W-SW 247 3,4 C 2,5 C
24.12.2012 07:01 4,1 C 95 % 1007,7 hPa 0,0 l/m 2,9 km/h (1 Bft) SW 225 3,4 C 4,1 C
24.12.2012 07:06 4,2 C 95 % 1007,9 hPa 0,0 l/m 6,5 km/h (2 Bft) W-SW 247 3,5 C 2,6 C
24.12.2012 07:11 4,2 C 95 % 1008,0 hPa 0,0 l/m 4,7 km/h (1 Bft) W-SW 247 3,5 C 3,3 C
24.12.2012 07:16 4,3 C 96 % 1008,0 hPa 0,0 l/m 4,3 km/h (1 Bft) SW 225 3,7 C 4,3 C
24.12.2012 07:21 4,2 C 95 % 1007,9 hPa 0,0 l/m 6,8 km/h (2 Bft) W-SW 247 3,5 C 2,5 C
24.12.2012 07:26 4,2 C 95 % 1007,9 hPa 0,0 l/m 8,6 km/h (2 Bft) SW 225 3,5 C 2,0 C
24.12.2012 07:31 4,2 C 95 % 1008,2 hPa 0,0 l/m 4,3 km/h (1 Bft) W-SW 247 3,5 C 4,2 C
24.12.2012 07:36 4,2 C 95 % 1008,1 hPa 0,0 l/m 4,3 km/h (1 Bft) SW 225 3,5 C 4,2 C
24.12.2012 07:41 4,3 C 96 % 1008,2 hPa 0,0 l/m 7,6 km/h (2 Bft) W-SW 247 3,7 C 2,4 C
24.12.2012 07:46 4,3 C 96 % 1008,3 hPa 0,0 l/m 9,4 km/h (2 Bft) SW 225 3,7 C 2,0 C
24.12.2012 07:51 4,3 C 96 % 1008,2 hPa 0,0 l/m 10,8 km/h (2 Bft) W-SW 247 3,7 C 1,6 C
24.12.2012 07:56 4,3 C 96 % 1008,3 hPa 0,0 l/m 13,0 km/h (3 Bft) SW 225 3,7 C 1,2 C
24.12.2012 08:01 4,3 C 96 % 1008,5 hPa 0,0 l/m 6,5 km/h (2 Bft) SW 225 3,7 C 2,8 C
24.12.2012 08:06 4,4 C 96 % 1008,3 hPa 0,0 l/m 6,5 km/h (2 Bft) S-SW 202 3,8 C 2,9 C
24.12.2012 08:11 4,3 C 96 % 1008,4 hPa 0,0 l/m 8,6 km/h (2 Bft) W-SW 247 3,7 C 2,2 C
24.12.2012 08:16 4,4 C 96 % 1008,4 hPa 0,0 l/m 5,8 km/h (2 Bft) W-SW 247 3,8 C 3,1 C
24.12.2012 08:21 4,4 C 96 % 1008,6 hPa 0,0 l/m 3,6 km/h (1 Bft) SW 225 3,8 C 4,4 C
24.12.2012 08:26 4,4 C 96 % 1008,3 hPa 0,0 l/m 4,7 km/h (1 Bft) S-SW 202 3,8 C 3,5 C
24.12.2012 08:31 4,4 C 96 % 1008,4 hPa 0,0 l/m 4,3 km/h (1 Bft) S-SW 202 3,8 C 4,4 C
24.12.2012 08:36 4,3 C 96 % 1008,2 hPa 0,0 l/m 4,3 km/h (1 Bft) S-SO 157 3,7 C 4,3 C
24.12.2012 08:41 4,3 C 96 % 1008,4 hPa 0,0 l/m 5,0 km/h (1 Bft) SW 225 3,7 C 3,3 C
24.12.2012 08:46 4,2 C 95 % 1008,4 hPa 0,0 l/m 5,0 km/h (1 Bft) S-SW 202 3,5 C 3,2 C
24.12.2012 08:51 4,1 C 95 % 1008,5 hPa 0,0 l/m 3,6 km/h (1 Bft) S-SW 202 3,4 C 4,1 C
24.12.2012 08:56 4,1 C 95 % 1008,5 hPa 0,0 l/m 2,9 km/h (1 Bft) S-SW 202 3,4 C 4,1 C
24.12.2012 09:01 4,1 C 95 % 1008,5 hPa 0,0 l/m 2,9 km/h (1 Bft) S-SW 202 3,4 C 4,1 C
24.12.2012 09:06 4,1 C 95 % 1008,5 hPa 0,0 l/m 2,5 km/h (1 Bft) S-SW 202 3,4 C 4,1 C
24.12.2012 09:11 4,1 C 95 % 1008,4 hPa 0,0 l/m 0,0 km/h (0 Bft) SW 225 3,4 C 4,1 C
24.12.2012 09:16 4,1 C 95 % 1008,5 hPa 0,0 l/m 5,8 km/h (2 Bft) S-SW 202 3,4 C 2,8 C
24.12.2012 09:21 4,3 C 96 % 1008,4 hPa 0,0 l/m 6,1 km/h (2 Bft) W-SW 247 3,7 C 2,9 C
24.12.2012 09:26 4,4 C 96 % 1008,5 hPa 0,0 l/m 7,9 km/h (2 Bft) W-SW 247 3,8 C 2,5 C
24.12.2012 09:31 4,5 C 96 % 1008,7 hPa 0,0 l/m 4,0 km/h (1 Bft) S-SW 202 3,9 C 4,5 C
24.12.2012 09:36 4,6 C 96 % 1008,8 hPa 0,0 l/m 4,0 km/h (1 Bft) SW 225 4,0 C 4,6 C
24.12.2012 09:41 4,6 C 96 % 1008,6 hPa 0,0 l/m 2,9 km/h (1 Bft) SW 225 4,0 C 4,6 C
24.12.2012 09:46 4,6 C 96 % 1008,7 hPa 0,0 l/m 4,3 km/h (1 Bft) S-SW 202 4,0 C 4,6 C
24.12.2012 09:51 4,7 C 96 % 1008,6 hPa 0,0 l/m 5,8 km/h (2 Bft) SW 225 4,1 C 3,4 C
24.12.2012 09:56 4,7 C 96 % 1008,7 hPa 0,0 l/m 2,5 km/h (1 Bft) S-SW 202 4,1 C 4,7 C
24.12.2012 10:01 4,8 C 96 % 1008,7 hPa 0,0 l/m 7,9 km/h (2 Bft) W-SW 247 4,2 C 2,9 C
24.12.2012 10:06 4,8 C 96 % 1008,7 hPa 0,0 l/m 3,6 km/h (1 Bft) W-SW 247 4,2 C 4,8 C
24.12.2012 10:11 4,8 C 96 % 1008,8 hPa 0,0 l/m 2,9 km/h (1 Bft) SW 225 4,2 C 4,8 C
24.12.2012 10:16 4,9 C 96 % 1008,8 hPa 0,0 l/m 3,2 km/h (1 Bft) S-SW 202 4,3 C 4,9 C
24.12.2012 10:21 4,9 C 96 % 1008,8 hPa 0,0 l/m 3,2 km/h (1 Bft) S-SW 202 4,3 C 4,9 C
24.12.2012 10:26 4,9 C 96 % 1008,8 hPa 0,0 l/m 2,9 km/h (1 Bft) S-SW 202 4,3 C 4,9 C
24.12.2012 10:31 5,0 C 96 % 1008,9 hPa 0,0 l/m 4,7 km/h (1 Bft) S-SW 202 4,4 C 4,2 C
24.12.2012 10:36 5,1 C 95 % 1009,0 hPa 0,0 l/m 6,1 km/h (2 Bft) W-SW 247 4,4 C 3,8 C
24.12.2012 10:41 5,1 C 95 % 1009,1 hPa 0,0 l/m 4,0 km/h (1 Bft) SW 225 4,4 C 5,1 C
24.12.2012 10:46 5,2 C 95 % 1009,0 hPa 0,0 l/m 3,2 km/h (1 Bft) S-SW 202 4,5 C 5,2 C
24.12.2012 10:51 5,2 C 95 % 1009,0 hPa 0,0 l/m 4,3 km/h (1 Bft) SW 225 4,5 C 5,2 C
24.12.2012 10:56 5,3 C 95 % 1009,1 hPa 0,0 l/m 4,3 km/h (1 Bft) SW 225 4,6 C 5,3 C
24.12.2012 11:01 5,3 C 95 % 1009,0 hPa 0,0 l/m 3,6 km/h (1 Bft) S-SW 202 4,6 C 5,3 C
24.12.2012 11:06 5,3 C 95 % 1008,9 hPa 0,0 l/m 5,0 km/h (1 Bft) S-SW 202 4,6 C 4,4 C
24.12.2012 11:11 5,3 C 95 % 1009,2 hPa 0,0 l/m 4,7 km/h (1 Bft) W-SW 247 4,6 C 4,5 C
24.12.2012 11:16 5,3 C 95 % 1009,1 hPa 0,0 l/m 4,0 km/h (1 Bft) S 180 4,6 C 5,3 C
24.12.2012 11:21 5,3 C 95 % 1008,9 hPa 0,0 l/m 2,5 km/h (1 Bft) S 180 4,6 C 5,3 C
24.12.2012 11:26 5,3 C 95 % 1008,8 hPa 0,0 l/m 2,2 km/h (1 Bft) S-SO 157 4,6 C 5,3 C
24.12.2012 11:31 5,2 C 95 % 1008,9 hPa 0,0 l/m 3,6 km/h (1 Bft) S 180 4,5 C 5,2 C
24.12.2012 11:36 5,2 C 95 % 1008,8 hPa 0,0 l/m 4,0 km/h (1 Bft) S 180 4,5 C 5,2 C
24.12.2012 11:41 5,2 C 95 % 1008,8 hPa 0,0 l/m 2,9 km/h (1 Bft) S-SW 202 4,5 C 5,2 C
24.12.2012 11:46 5,2 C 95 % 1008,8 hPa 0,0 l/m 0,0 km/h (0 Bft) S 180 4,5 C 5,2 C
24.12.2012 11:51 5,2 C 95 % 1008,7 hPa 0,0 l/m 4,7 km/h (1 Bft) S-SO 157 4,5 C 4,4 C
24.12.2012 11:56 5,2 C 96 % 1008,8 hPa 0,0 l/m 2,9 km/h (1 Bft) S 180 4,6 C 5,2 C
24.12.2012 12:01 5,1 C 96 % 1008,6 hPa 0,0 l/m 5,8 km/h (2 Bft) S-SW 202 4,5 C 3,9 C
24.12.2012 12:06 5,1 C 96 % 1008,6 hPa 0,0 l/m 5,4 km/h (1 Bft) S-SW 202 4,5 C 4,0 C
24.12.2012 12:11 5,1 C 96 % 1008,6 hPa 0,0 l/m 3,6 km/h (1 Bft) S 180 4,5 C 5,1 C
24.12.2012 12:16 5,1 C 96 % 1008,4 hPa 0,0 l/m 5,0 km/h (1 Bft) S 180 4,5 C 4,2 C
24.12.2012 12:21 5,1 C 96 % 1008,5 hPa 0,0 l/m 5,0 km/h (1 Bft) S-SW 202 4,5 C 4,2 C
24.12.2012 12:26 5,1 C 96 % 1008,3 hPa 0,0 l/m 3,6 km/h (1 Bft) S 180 4,5 C 5,1 C
24.12.2012 12:31 5,1 C 96 % 1008,4 hPa 0,0 l/m 3,6 km/h (1 Bft) SW 225 4,5 C 5,1 C
24.12.2012 12:36 5,1 C 96 % 1008,2 hPa 0,0 l/m 3,6 km/h (1 Bft) SW 225 4,5 C 5,1 C
24.12.2012 12:41 5,1 C 96 % 1008,2 hPa 0,0 l/m 4,3 km/h (1 Bft) S-SW 202 4,5 C 5,1 C
24.12.2012 12:46 5,2 C 96 % 1008,4 hPa 0,0 l/m 4,0 km/h (1 Bft) S-SO 157 4,6 C 5,2 C
24.12.2012 12:51 5,3 C 96 % 1008,2 hPa 0,0 l/m 5,4 km/h (1 Bft) SW 225 4,7 C 4,3 C
24.12.2012 12:56 5,3 C 96 % 1008,1 hPa 0,0 l/m 7,9 km/h (2 Bft) S 180 4,7 C 3,5 C
24.12.2012 13:01 5,4 C 96 % 1008,0 hPa 0,0 l/m 2,5 km/h (1 Bft) S-SO 157 4,8 C 5,4 C
24.12.2012 13:06 5,4 C 96 % 1008,1 hPa 0,0 l/m 2,5 km/h (1 Bft) S-SW 202 4,8 C 5,4 C
24.12.2012 13:11 5,4 C 96 % 1007,7 hPa 0,0 l/m 4,0 km/h (1 Bft) S 180 4,8 C 5,4 C
24.12.2012 13:16 5,4 C 96 % 1007,8 hPa 0,0 l/m 5,8 km/h (2 Bft) S 180 4,8 C 4,2 C
24.12.2012 13:21 5,4 C 96 % 1007,7 hPa 0,0 l/m 8,3 km/h (2 Bft) S-SO 157 4,8 C 3,5 C
24.12.2012 13:26 5,3 C 95 % 1007,7 hPa 0,0 l/m 3,6 km/h (1 Bft) S-SW 202 4,6 C 5,3 C
24.12.2012 13:31 5,3 C 96 % 1007,6 hPa 0,0 l/m 5,0 km/h (1 Bft) SW 225 4,7 C 4,4 C
24.12.2012 13:36 5,4 C 96 % 1007,7 hPa 0,0 l/m 5,4 km/h (1 Bft) S-SW 202 4,8 C 4,4 C
24.12.2012 13:41 5,3 C 95 % 1007,8 hPa 0,0 l/m 2,9 km/h (1 Bft) S-SO 157 4,6 C 5,3 C
24.12.2012 13:46 5,3 C 95 % 1007,6 hPa 0,0 l/m 4,0 km/h (1 Bft) S-SO 157 4,6 C 5,3 C
24.12.2012 13:51 5,3 C 95 % 1007,6 hPa 0,0 l/m 6,5 km/h (2 Bft) S-SO 157 4,6 C 3,9 C
24.12.2012 13:56 5,3 C 95 % 1007,5 hPa 0,0 l/m 5,8 km/h (2 Bft) S-SO 157 4,6 C 4,1 C
24.12.2012 14:01 5,3 C 95 % 1007,3 hPa 0,0 l/m 7,6 km/h (2 Bft) S 180 4,6 C 3,6 C
24.12.2012 14:06 5,4 C 96 % 1007,2 hPa 0,0 l/m 3,6 km/h (1 Bft) S-SO 157 4,8 C 5,4 C
24.12.2012 14:11 5,4 C 96 % 1007,4 hPa 0,0 l/m 4,7 km/h (1 Bft) S 180 4,8 C 4,7 C
24.12.2012 14:16 5,5 C 96 % 1007,3 hPa 0,0 l/m 7,6 km/h (2 Bft) S 180 4,9 C 3,8 C
24.12.2012 14:21 5,5 C 96 % 1007,2 hPa 0,0 l/m 1,8 km/h (1 Bft) S-SO 157 4,9 C 5,5 C
24.12.2012 14:26 5,5 C 96 % 1007,3 hPa 0,0 l/m 8,6 km/h (2 Bft) S 180 4,9 C 3,6 C
24.12.2012 14:31 5,5 C 96 % 1007,4 hPa 0,0 l/m 0,0 km/h (0 Bft) S-SW 202 4,9 C 5,5 C
24.12.2012 14:36 5,5 C 96 % 1007,3 hPa 0,0 l/m 3,2 km/h (1 Bft) S 180 4,9 C 5,5 C
24.12.2012 14:41 5,6 C 96 % 1007,1 hPa 0,0 l/m 3,2 km/h (1 Bft) SO 135 5,0 C 5,6 C
24.12.2012 14:46 5,6 C 96 % 1007,2 hPa 0,0 l/m 5,4 km/h (1 Bft) S-SO 157 5,0 C 4,6 C
24.12.2012 14:51 5,6 C 96 % 1006,8 hPa 0,0 l/m 5,8 km/h (2 Bft) SO 135 5,0 C 4,5 C
24.12.2012 14:56 5,6 C 96 % 1006,6 hPa 0,0 l/m 4,7 km/h (1 Bft) S 180 5,0 C 4,9 C
24.12.2012 15:01 5,6 C 95 % 1006,7 hPa 0,0 l/m 1,4 km/h (1 Bft) S-SO 157 4,9 C 5,6 C
24.12.2012 15:06 5,6 C 96 % 1006,7 hPa 0,0 l/m 3,2 km/h (1 Bft) S-SO 157 5,0 C 5,6 C
24.12.2012 15:11 5,7 C 96 % 1006,7 hPa 0,0 l/m 2,2 km/h (1 Bft) S-SW 202 5,1 C 5,7 C
24.12.2012 15:16 5,8 C 96 % 1006,6 hPa 0,0 l/m 4,0 km/h (1 Bft) S 180 5,2 C 5,8 C
24.12.2012 15:21 5,8 C 96 % 1006,6 hPa 0,0 l/m 5,8 km/h (2 Bft) S 180 5,2 C 4,7 C
24.12.2012 15:26 5,8 C 96 % 1006,3 hPa 0,0 l/m 5,4 km/h (1 Bft) S-SO 157 5,2 C 4,8 C
24.12.2012 15:31 5,8 C 95 % 1006,6 hPa 0,0 l/m 5,0 km/h (1 Bft) SO 135 5,1 C 5,0 C
24.12.2012 15:36 5,9 C 95 % 1006,7 hPa 0,0 l/m 5,0 km/h (1 Bft) S 180 5,2 C 5,1 C
24.12.2012 15:41 5,9 C 96 % 1006,6 hPa 0,0 l/m 4,0 km/h (1 Bft) SO 135 5,3 C 5,9 C
24.12.2012 15:46 5,9 C 95 % 1006,3 hPa 0,0 l/m 5,0 km/h (1 Bft) O-SO 112 5,2 C 5,1 C
24.12.2012 15:51 5,9 C 95 % 1006,3 hPa 0,0 l/m 2,2 km/h (1 Bft) SO 135 5,2 C 5,9 C
24.12.2012 15:56 6,1 C 95 % 1006,4 hPa 0,0 l/m 5,4 km/h (1 Bft) S-SO 157 5,4 C 5,2 C
24.12.2012 16:01 6,1 C 95 % 1006,2 hPa 0,0 l/m 6,5 km/h (2 Bft) SO 135 5,4 C 4,8 C
24.12.2012 16:06 6,1 C 95 % 1006,2 hPa 0,0 l/m 4,7 km/h (1 Bft) S-SO 157 5,4 C 5,4 C
24.12.2012 16:11 6,1 C 95 % 1006,2 hPa 0,0 l/m 8,6 km/h (2 Bft) SO 135 5,4 C 4,3 C
24.12.2012 16:16 6,1 C 95 % 1006,1 hPa 0,0 l/m 5,8 km/h (2 Bft) S-SO 157 5,4 C 5,1 C
24.12.2012 16:21 6,1 C 95 % 1006,2 hPa 0,0 l/m 6,1 km/h (2 Bft) SO 135 5,4 C 5,0 C
24.12.2012 16:26 6,2 C 95 % 1005,9 hPa 0,0 l/m 4,0 km/h (1 Bft) S-SO 157 5,5 C 6,2 C
24.12.2012 16:31 6,1 C 95 % 1005,8 hPa 0,0 l/m 2,2 km/h (1 Bft) SO 135 5,4 C 6,1 C
24.12.2012 16:36 6,1 C 95 % 1005,7 hPa 0,0 l/m 4,7 km/h (1 Bft) O-SO 112 5,4 C 5,4 C
24.12.2012 16:41 5,9 C 95 % 1005,8 hPa 0,0 l/m 2,5 km/h (1 Bft) S-SO 157 5,2 C 5,9 C
24.12.2012 16:46 5,9 C 95 % 1005,9 hPa 0,0 l/m 3,6 km/h (1 Bft) S-SO 157 5,2 C 5,9 C
24.12.2012 16:51 5,9 C 95 % 1005,8 hPa 0,0 l/m 1,4 km/h (1 Bft) SO 135 5,2 C 5,9 C
24.12.2012 16:56 5,9 C 95 % 1005,6 hPa 0,0 l/m 2,5 km/h (1 Bft) SO 135 5,2 C 5,9 C
24.12.2012 17:01 5,8 C 96 % 1005,5 hPa 0,0 l/m 1,8 km/h (1 Bft) SO 135 5,2 C 5,8 C
24.12.2012 17:06 5,8 C 96 % 1005,6 hPa 0,0 l/m 1,4 km/h (1 Bft) SO 135 5,2 C 5,8 C
24.12.2012 17:11 5,8 C 96 % 1005,4 hPa 0,0 l/m 2,2 km/h (1 Bft) SO 135 5,2 C 5,8 C
24.12.2012 17:16 5,6 C 96 % 1005,5 hPa 0,0 l/m 1,8 km/h (1 Bft) S-SO 157 5,0 C 5,6 C
24.12.2012 17:21 5,6 C 96 % 1005,3 hPa 0,0 l/m 2,2 km/h (1 Bft) SO 135 5,0 C 5,6 C
24.12.2012 17:26 5,6 C 96 % 1005,2 hPa 0,0 l/m 4,3 km/h (1 Bft) SO 135 5,0 C 5,6 C
24.12.2012 17:31 5,6 C 96 % 1005,2 hPa 0,0 l/m 5,0 km/h (1 Bft) SO 135 5,0 C 4,8 C
24.12.2012 17:36 5,8 C 96 % 1004,8 hPa 0,0 l/m 5,4 km/h (1 Bft) S-SO 157 5,2 C 4,8 C
24.12.2012 17:41 5,8 C 96 % 1004,9 hPa 0,0 l/m 4,3 km/h (1 Bft) SO 135 5,2 C 5,8 C
24.12.2012 17:46 5,8 C 96 % 1004,7 hPa 0,0 l/m 5,0 km/h (1 Bft) O-SO 112 5,2 C 5,0 C
24.12.2012 17:51 5,8 C 96 % 1004,6 hPa 0,0 l/m 6,5 km/h (2 Bft) S-SO 157 5,2 C 4,5 C
24.12.2012 17:56 5,8 C 96 % 1004,4 hPa 0,0 l/m 5,0 km/h (1 Bft) SO 135 5,2 C 5,0 C
24.12.2012 18:01 5,8 C 96 % 1004,3 hPa 0,0 l/m 4,0 km/h (1 Bft) SO 135 5,2 C 5,8 C
24.12.2012 18:06 5,8 C 96 % 1004,2 hPa 0,0 l/m 3,6 km/h (1 Bft) S-SO 157 5,2 C 5,8 C
24.12.2012 18:11 5,8 C 96 % 1004,1 hPa 0,0 l/m 6,8 km/h (2 Bft) SO 135 5,2 C 4,4 C
24.12.2012 18:16 5,9 C 96 % 1003,7 hPa 0,0 l/m 7,9 km/h (2 Bft) SO 135 5,3 C 4,2 C
24.12.2012 18:21 5,9 C 96 % 1003,7 hPa 0,0 l/m 3,6 km/h (1 Bft) O 90 5,3 C 5,9 C
24.12.2012 18:26 6,1 C 96 % 1003,7 hPa 0,0 l/m 4,0 km/h (1 Bft) SO 135 5,5 C 6,1 C
24.12.2012 18:31 6,2 C 96 % 1003,3 hPa 0,0 l/m 6,1 km/h (2 Bft) SO 135 5,6 C 5,1 C
24.12.2012 18:36 6,2 C 95 % 1003,5 hPa 0,0 l/m 1,1 km/h (1 Bft) S-SO 157 5,5 C 6,2 C
24.12.2012 18:41 6,2 C 95 % 1003,3 hPa 0,0 l/m 2,2 km/h (1 Bft) S-SO 157 5,5 C 6,2 C
24.12.2012 18:46 6,2 C 95 % 1003,3 hPa 0,0 l/m 3,2 km/h (1 Bft) S 180 5,5 C 6,2 C
24.12.2012 18:51 6,1 C 95 % 1003,3 hPa 0,0 l/m 3,2 km/h (1 Bft) SO 135 5,4 C 6,1 C
24.12.2012 18:56 6,1 C 96 % 1003,4 hPa 0,0 l/m 2,5 km/h (1 Bft) S-SO 157 5,5 C 6,1 C
24.12.2012 19:01 6,1 C 96 % 1003,1 hPa 0,0 l/m 7,6 km/h (2 Bft) S 180 5,5 C 4,5 C
24.12.2012 19:06 6,2 C 96 % 1003,0 hPa 0,0 l/m 0,0 km/h (0 Bft) S-SO 157 5,6 C 6,2 C
24.12.2012 19:11 6,1 C 96 % 1002,8 hPa 0,0 l/m 1,4 km/h (1 Bft) SO 135 5,5 C 6,1 C
24.12.2012 19:16 5,9 C 95 % 1002,7 hPa 0,0 l/m 3,6 km/h (1 Bft) S-SO 157 5,2 C 5,9 C
24.12.2012 19:21 5,9 C 95 % 1002,7 hPa 0,0 l/m 4,7 km/h (1 Bft) SO 135 5,2 C 5,2 C
24.12.2012 19:26 5,8 C 96 % 1002,6 hPa 0,0 l/m 2,5 km/h (1 Bft) SO 135 5,2 C 5,8 C
24.12.2012 19:31 5,6 C 96 % 1002,5 hPa 0,0 l/m 2,5 km/h (1 Bft) SO 135 5,0 C 5,6 C
24.12.2012 19:36 5,6 C 96 % 1002,4 hPa 0,0 l/m 6,1 km/h (2 Bft) S-SO 157 5,0 C 4,4 C
24.12.2012 19:41 5,6 C 96 % 1002,1 hPa 0,0 l/m 5,8 km/h (2 Bft) SO 135 5,0 C 4,5 C
24.12.2012 19:46 5,7 C 96 % 1001,9 hPa 0,0 l/m 4,7 km/h (1 Bft) SO 135 5,1 C 5,0 C
24.12.2012 19:51 5,8 C 96 % 1001,8 hPa 0,0 l/m 5,8 km/h (2 Bft) SO 135 5,2 C 4,7 C
24.12.2012 19:56 5,7 C 96 % 1002,2 hPa 0,0 l/m 3,6 km/h (1 Bft) S 180 5,1 C 5,7 C
24.12.2012 20:01 5,6 C 96 % 1002,1 hPa 0,0 l/m 4,0 km/h (1 Bft) S 180 5,0 C 5,6 C
24.12.2012 20:06 5,7 C 96 % 1002,2 hPa 0,0 l/m 4,0 km/h (1 Bft) S-SO 157 5,1 C 5,7 C
24.12.2012 20:11 5,8 C 96 % 1002,1 hPa 0,0 l/m 2,5 km/h (1 Bft) S 180 5,2 C 5,8 C
24.12.2012 20:16 5,8 C 96 % 1001,5 hPa 0,0 l/m 6,8 km/h (2 Bft) S-SO 157 5,2 C 4,4 C
24.12.2012 20:21 5,9 C 96 % 1001,3 hPa 0,0 l/m 10,8 km/h (2 Bft) S-SO 157 5,3 C 3,6 C
24.12.2012 20:26 5,9 C 96 % 1001,3 hPa 0,0 l/m 10,8 km/h (2 Bft) S-SO 157 5,3 C 3,6 C
24.12.2012 20:31 6,1 C 96 % 1001,1 hPa 0,0 l/m 6,8 km/h (2 Bft) S-SW 202 5,5 C 4,7 C
24.12.2012 20:36 6,3 C 96 % 1001,1 hPa 0,0 l/m 5,8 km/h (2 Bft) S-SW 202 5,7 C 5,3 C
24.12.2012 20:41 6,4 C 96 % 1001,1 hPa 0,0 l/m 13,0 km/h (3 Bft) S 180 5,8 C 3,8 C
24.12.2012 20:46 6,5 C 96 % 1001,1 hPa 0,0 l/m 8,6 km/h (2 Bft) SW 225 5,9 C 4,8 C
24.12.2012 20:51 6,5 C 96 % 1001,0 hPa 0,0 l/m 7,2 km/h (2 Bft) S 180 5,9 C 5,1 C
24.12.2012 20:56 6,5 C 96 % 1000,9 hPa 0,0 l/m 5,4 km/h (1 Bft) S-SW 202 5,9 C 5,6 C
24.12.2012 21:01 6,4 C 95 % 1000,7 hPa 0,0 l/m 8,3 km/h (2 Bft) SW 225 5,7 C 4,7 C
24.12.2012 21:06 6,5 C 95 % 1000,6 hPa 0,0 l/m 6,1 km/h (2 Bft) S-SW 202 5,8 C 5,4 C
24.12.2012 21:11 6,5 C 96 % 1000,9 hPa 0,0 l/m 7,2 km/h (2 Bft) W-SW 247 5,9 C 5,1 C
24.12.2012 21:16 6,6 C 96 % 1000,8 hPa 0,0 l/m 7,2 km/h (2 Bft) W-SW 247 6,0 C 5,2 C
24.12.2012 21:21 6,6 C 96 % 1000,5 hPa 0,0 l/m 7,9 km/h (2 Bft) S-SW 202 6,0 C 5,0 C
24.12.2012 21:26 6,7 C 96 % 1000,5 hPa 0,0 l/m 5,4 km/h (1 Bft) S-SW 202 6,1 C 5,9 C
24.12.2012 21:31 6,7 C 96 % 1000,3 hPa 0,0 l/m 10,8 km/h (2 Bft) S-SW 202 6,1 C 4,5 C
24.12.2012 21:36 6,7 C 96 % 1000,1 hPa 0,0 l/m 9,7 km/h (2 Bft) SW 225 6,1 C 4,8 C
24.12.2012 21:41 6,7 C 96 % 1000,4 hPa 0,0 l/m 13,7 km/h (3 Bft) S-SW 202 6,1 C 4,0 C
24.12.2012 21:46 6,7 C 96 % 1000,3 hPa 0,0 l/m 11,9 km/h (2 Bft) S-SW 202 6,1 C 4,3 C
24.12.2012 21:51 6,8 C 96 % 1000,2 hPa 0,0 l/m 7,6 km/h (2 Bft) S-SW 202 6,2 C 5,3 C
24.12.2012 21:56 6,8 C 96 % 1000,1 hPa 0,0 l/m 21,2 km/h (4 Bft) S 180 6,2 C 3,2 C
24.12.2012 22:01 6,8 C 96 % 1000,0 hPa 0,0 l/m 7,2 km/h (2 Bft) S-SW 202 6,2 C 5,5 C
24.12.2012 22:06 6,8 C 96 % 999,9 hPa 0,0 l/m 8,6 km/h (2 Bft) S 180 6,2 C 5,1 C
24.12.2012 22:11 6,8 C 96 % 999,8 hPa 0,0 l/m 11,9 km/h (2 Bft) S-SO 157 6,2 C 4,5 C
24.12.2012 22:16 6,7 C 96 % 1000,1 hPa 0,0 l/m 7,6 km/h (2 Bft) SW 225 6,1 C 5,2 C
24.12.2012 22:21 6,6 C 96 % 1000,1 hPa 0,0 l/m 13,3 km/h (3 Bft) S-SW 202 6,0 C 4,0 C
24.12.2012 22:26 6,6 C 96 % 999,8 hPa 0,0 l/m 6,5 km/h (2 Bft) S 180 6,0 C 5,4 C
24.12.2012 22:31 6,5 C 96 % 999,8 hPa 0,0 l/m 8,6 km/h (2 Bft) S-SW 202 5,9 C 4,8 C
24.12.2012 22:36 6,4 C 95 % 999,6 hPa 0,0 l/m 6,5 km/h (2 Bft) SO 135 5,7 C 5,2 C
24.12.2012 22:41 6,4 C 95 % 999,6 hPa 0,0 l/m 1,8 km/h (1 Bft) S-SW 202 5,7 C 6,4 C
24.12.2012 22:46 6,3 C 95 % 999,6 hPa 0,0 l/m 8,6 km/h (2 Bft) SW 225 5,6 C 4,5 C
24.12.2012 22:51 6,3 C 95 % 999,3 hPa 0,0 l/m 8,3 km/h (2 Bft) S 180 5,6 C 4,6 C
24.12.2012 22:56 6,3 C 95 % 999,2 hPa 0,0 l/m 7,6 km/h (2 Bft) SW 225 5,6 C 4,8 C
24.12.2012 23:01 6,3 C 95 % 999,1 hPa 0,0 l/m 5,8 km/h (2 Bft) S-SO 157 5,6 C 5,3 C
24.12.2012 23:06 6,4 C 95 % 999,2 hPa 0,0 l/m 10,1 km/h (2 Bft) S 180 5,7 C 4,3 C
24.12.2012 23:11 6,5 C 95 % 999,2 hPa 0,0 l/m 10,4 km/h (2 Bft) W-SW 247 5,8 C 4,4 C
24.12.2012 23:16 6,7 C 96 % 999,4 hPa 0,0 l/m 20,9 km/h (4 Bft) SW 225 6,1 C 3,1 C
24.12.2012 23:21 7,0 C 96 % 999,3 hPa 0,0 l/m 23,0 km/h (4 Bft) S-SW 202 6,4 C 3,3 C
24.12.2012 23:26 7,2 C 96 % 999,3 hPa 0,0 l/m 25,9 km/h (4 Bft) SW 225 6,6 C 3,3 C
24.12.2012 23:31 7,4 C 96 % 999,4 hPa 0,0 l/m 13,7 km/h (3 Bft) SW 225 6,8 C 4,9 C
24.12.2012 23:36 7,5 C 96 % 999,6 hPa 0,0 l/m 14,4 km/h (3 Bft) SW 225 6,9 C 4,9 C
24.12.2012 23:41 7,6 C 96 % 999,4 hPa 0,0 l/m 10,1 km/h (2 Bft) S-SW 202 7,0 C 5,7 C
24.12.2012 23:46 7,8 C 96 % 999,6 hPa 0,0 l/m 25,2 km/h (4 Bft) S-SW 202 7,2 C 4,1 C
24.12.2012 23:51 7,8 C 96 % 999,7 hPa 0,0 l/m 10,1 km/h (2 Bft) S-SW 202 7,2 C 6,0 C
24.12.2012 23:56 7,9 C 96 % 999,7 hPa 0,0 l/m 17,6 km/h (3 Bft) W 270 7,3 C 5,0 C
_ Min-Zeit 00:01 00:01 23:01 - 02:51 - - 00:01 07:56
Minimum _ 3,3 C 95 % 999,1 hPa - 0,0 km/h (0 Bft) - - 2,6 C 1,2 C
_ Max-Zeit 23:56 05:21 11:11 00:46 23:26 - - 23:56 22:41
Maximum _ 7,9 C 96 % 1009,2 hPa 1,0 l/m 25,9 km/h
SW (4 Bft)
- - 7,3 C 6,4 C
Durchschnitt _ 5,2 C 96 % 1005,9 hPa #4,7 l/m 6,1 km/h (2 Bft) W-SW - 4,6 C 4,2 C
(c) by David Heller